Time;durP1;ratioP1;P1;durP2;ratioP2;P2;SDS_P1;SDS_P2;PMS_P1;PMS_P2;Temp;Humidity;BMP_temperature;BMP_pressure;BME280_temperature;BME280_humidity;BME280_pressure;Samples;Min_cycle;Max_cycle;Signal;HPM_P1;HPM_P2
2023/12/17 00:00:40;;;;;;;13.07;5.25;;;;;;;;;;4899221;29;20029;-68
2023/12/17 00:03:05;;;;;;;13.38;5.95;;;;;;;;;;4899240;29;20453;-68
2023/12/17 00:05:31;;;;;;;12.15;6.00;;;;;;;;;;4899175;29;20032;-70
2023/12/17 00:07:56;;;;;;;8.70;5.18;;;;;;;;;;4899240;29;20028;-68
2023/12/17 00:10:22;;;;;;;13.20;5.40;;;;;;;;;;4899177;29;20025;-71
2023/12/17 00:12:47;;;;;;;12.23;5.03;;;;;;;;;;4899121;29;20032;-71
2023/12/17 00:15:13;;;;;;;11.00;5.10;;;;;;;;;;4899242;29;20029;-68
2023/12/17 00:17:38;;;;;;;10.60;4.80;;;;;;;;;;4898926;29;20028;-72
2023/12/17 00:20:04;;;;;;;11.07;5.03;;;;;;;;;;4898967;29;20132;-70
2023/12/17 00:22:30;;;;;;;9.82;4.65;;;;;;;;;;4899001;29;20029;-70
2023/12/17 00:24:55;;;;;;;10.55;5.13;;;;;;;;;;4898865;29;20079;-68
2023/12/17 00:27:21;;;;;;;8.38;5.13;;;;;;;;;;4898816;29;20027;-68
2023/12/17 00:29:47;;;;;;;8.77;5.57;;;;;;;;;;4898851;29;20488;-68
2023/12/17 00:32:12;;;;;;;8.13;5.13;;;;;;;;;;4898692;29;20043;-69
2023/12/17 00:34:38;;;;;;;11.98;4.95;;;;;;;;;;4898727;29;20032;-69
2023/12/17 00:37:03;;;;;;;10.98;5.63;;;;;;;;;;4898880;29;20032;-68
2023/12/17 00:39:29;;;;;;;10.98;5.38;;;;;;;;;;4901044;29;20032;-70
2023/12/17 00:41:54;;;;;;;8.95;4.85;;;;;;;;;;4906955;29;20024;-71
2023/12/17 00:44:20;;;;;;;11.63;4.75;;;;;;;;;;4908128;29;20095;-71
2023/12/17 00:46:45;;;;;;;7.70;4.60;;;;;;;;;;4903466;29;20028;-68
2023/12/17 00:49:11;;;;;;;8.85;5.15;;;;;;;;;;4898659;29;20028;-67
2023/12/17 00:51:36;;;;;;;10.25;5.45;;;;;;;;;;4898491;29;20020;-68
2023/12/17 00:54:02;;;;;;;9.27;4.95;;;;;;;;;;4899288;29;20053;-67
2023/12/17 00:56:28;;;;;;;9.50;5.15;;;;;;;;;;4898424;29;20055;-68
2023/12/17 00:58:53;;;;;;;10.60;5.43;;;;;;;;;;4898352;29;20025;-67
2023/12/17 01:01:19;;;;;;;8.80;4.82;;;;;;;;;;4898405;29;20056;-69
2023/12/17 01:03:44;;;;;;;8.43;5.63;;;;;;;;;;4898389;29;20103;-69
2023/12/17 01:06:10;;;;;;;9.77;4.97;;;;;;;;;;4898038;29;20043;-69
2023/12/17 01:08:35;;;;;;;11.77;4.93;;;;;;;;;;4898025;29;20036;-69
2023/12/17 01:11:01;;;;;;;10.98;5.13;;;;;;;;;;4898027;29;20077;-68
2023/12/17 01:13:26;;;;;;;9.50;5.32;;;;;;;;;;4897794;29;20033;-68
2023/12/17 01:15:52;;;;;;;8.50;5.10;;;;;;;;;;4898274;29;20033;-68
2023/12/17 01:18:17;;;;;;;13.10;5.50;;;;;;;;;;4898205;29;20481;-68
2023/12/17 01:20:43;;;;;;;9.77;5.15;;;;;;;;;;4898045;29;20500;-69
2023/12/17 01:23:08;;;;;;;10.95;4.97;;;;;;;;;;4898028;29;20036;-68
2023/12/17 01:25:35;;;;;;;8.88;5.25;;;;;;;;;;4897934;29;20092;-68
2023/12/17 01:28:01;;;;;;;8.93;4.75;;;;;;;;;;4898158;29;20036;-68
2023/12/17 01:30:26;;;;;;;15.02;5.47;;;;;;;;;;4897832;29;20024;-68
2023/12/17 01:32:52;;;;;;;11.32;4.78;;;;;;;;;;4897947;29;20064;-68
2023/12/17 01:35:17;;;;;;;9.32;4.85;;;;;;;;;;4897827;29;20546;-67
2023/12/17 01:37:43;;;;;;;7.97;4.88;;;;;;;;;;4897952;29;20032;-68
2023/12/17 01:40:09;;;;;;;8.30;4.95;;;;;;;;;;4910461;29;20461;-68
2023/12/17 01:42:34;;;;;;;5.95;4.50;;;;;;;;;;4917310;29;20044;-69
2023/12/17 01:45:00;;;;;;;10.52;5.15;;;;;;;;;;4916683;29;20028;-68
2023/12/17 01:47:25;;;;;;;7.03;4.55;;;;;;;;;;4916499;29;20020;-68
2023/12/17 01:49:51;;;;;;;7.68;4.63;;;;;;;;;;4916309;29;20068;-68
2023/12/17 01:52:17;;;;;;;7.90;5.47;;;;;;;;;;4916129;29;20071;-68
2023/12/17 01:54:43;;;;;;;7.05;4.68;;;;;;;;;;4916307;29;20063;-67
2023/12/17 01:57:08;;;;;;;7.15;4.68;;;;;;;;;;4916180;29;20061;-67
2023/12/17 01:59:35;;;;;;;9.18;5.40;;;;;;;;;;4916252;29;20028;-67
2023/12/17 02:02:02;;;;;;;9.88;5.05;;;;;;;;;;4917820;29;20036;-67
2023/12/17 02:04:28;;;;;;;9.35;4.95;;;;;;;;;;4916065;29;20130;-68
2023/12/17 02:06:54;;;;;;;7.88;5.07;;;;;;;;;;4916224;29;20028;-67
2023/12/17 02:09:19;;;;;;;6.45;4.68;;;;;;;;;;4916160;29;20024;-67
2023/12/17 02:11:46;;;;;;;8.95;4.75;;;;;;;;;;4916339;29;20111;-67
2023/12/17 02:14:11;;;;;;;8.38;4.70;;;;;;;;;;4916132;29;20039;-66
2023/12/17 02:16:37;;;;;;;7.82;5.00;;;;;;;;;;4916692;29;20512;-67
2023/12/17 02:19:02;;;;;;;12.30;4.93;;;;;;;;;;4915776;29;20020;-67
2023/12/17 02:21:28;;;;;;;7.65;4.80;;;;;;;;;;4916372;29;20036;-67
2023/12/17 02:23:54;;;;;;;9.45;4.65;;;;;;;;;;4917062;29;20063;-67
2023/12/17 02:26:20;;;;;;;10.18;5.40;;;;;;;;;;4920204;29;20036;-67
2023/12/17 02:28:47;;;;;;;11.57;4.82;;;;;;;;;;4920601;29;20028;-68
2023/12/17 02:31:13;;;;;;;9.70;4.90;;;;;;;;;;4919950;29;20052;-69
2023/12/17 02:33:39;;;;;;;10.68;5.20;;;;;;;;;;4920194;29;20071;-69
2023/12/17 02:36:05;;;;;;;10.68;4.88;;;;;;;;;;4920081;29;20035;-69
2023/12/17 02:38:30;;;;;;;8.75;4.28;;;;;;;;;;4919816;29;20028;-69
2023/12/17 02:40:56;;;;;;;8.68;4.82;;;;;;;;;;4919769;29;20031;-69
2023/12/17 02:43:21;;;;;;;12.18;4.82;;;;;;;;;;4919967;29;20035;-69
2023/12/17 02:45:47;;;;;;;9.82;4.90;;;;;;;;;;4919733;29;20032;-69
2023/12/17 02:48:12;;;;;;;9.05;4.63;;;;;;;;;;4919904;29;20103;-69
2023/12/17 02:50:38;;;;;;;8.18;4.80;;;;;;;;;;4919592;29;20051;-69
2023/12/17 02:53:03;;;;;;;8.85;4.93;;;;;;;;;;4921024;29;20052;-69
2023/12/17 02:55:29;;;;;;;9.50;4.65;;;;;;;;;;4919547;29;20055;-67
2023/12/17 02:57:54;;;;;;;7.53;5.22;;;;;;;;;;4919488;29;20043;-71
2023/12/17 03:00:20;;;;;;;7.10;4.32;;;;;;;;;;4919500;29;20557;-72
2023/12/17 03:02:46;;;;;;;10.98;4.97;;;;;;;;;;4920032;29;20031;-72
2023/12/17 03:05:11;;;;;;;7.82;4.40;;;;;;;;;;4919674;29;20132;-66
2023/12/17 07:19:29;;;;;;;7.90;3.42;;;;;;;;;;5497429;23;20046;-68
2023/12/17 07:21:54;;;;;;;5.95;3.45;;;;;;;;;;4995153;28;20046;-70
2023/12/17 07:24:20;;;;;;;4.93;3.67;;;;;;;;;;4996000;28;20039;-72
2023/12/17 07:26:45;;;;;;;5.05;3.35;;;;;;;;;;4996037;28;20054;-70
2023/12/17 07:29:11;;;;;;;4.70;3.40;;;;;;;;;;4995786;28;20022;-72
2023/12/17 07:31:37;;;;;;;7.15;3.50;;;;;;;;;;4995837;28;20106;-71
2023/12/17 07:34:03;;;;;;;6.80;3.63;;;;;;;;;;4995609;28;20113;-71
2023/12/17 07:36:28;;;;;;;4.93;3.50;;;;;;;;;;4995702;28;20101;-71
2023/12/17 07:38:54;;;;;;;4.85;3.53;;;;;;;;;;4995554;28;20546;-71
2023/12/17 07:41:19;;;;;;;4.70;3.70;;;;;;;;;;4977958;28;20031;-70
2023/12/17 07:43:45;;;;;;;5.38;3.90;;;;;;;;;;4995549;28;20022;-70
2023/12/17 07:46:10;;;;;;;4.45;3.47;;;;;;;;;;4995495;28;20486;-69
2023/12/17 07:48:36;;;;;;;5.00;3.67;;;;;;;;;;4995526;28;20050;-69
2023/12/17 07:51:02;;;;;;;4.47;3.20;;;;;;;;;;4995563;28;20023;-69
2023/12/17 07:53:27;;;;;;;6.40;3.20;;;;;;;;;;4995172;28;20058;-70
2023/12/17 07:55:57;;;;;;;7.35;3.47;;;;;;;;;;4994931;28;20034;-70
2023/12/17 07:58:24;;;;;;;5.88;3.40;;;;;;;;;;4994879;28;20111;-69
2023/12/17 08:00:50;;;;;;;4.43;3.20;;;;;;;;;;4995262;28;20436;-70
2023/12/17 08:03:16;;;;;;;5.10;3.40;;;;;;;;;;4995592;28;20379;-64
2023/12/17 08:05:41;;;;;;;5.15;3.55;;;;;;;;;;4995246;28;20026;-70
2023/12/17 08:08:07;;;;;;;5.28;3.55;;;;;;;;;;4995039;28;20035;-69
2023/12/17 08:10:33;;;;;;;4.35;3.38;;;;;;;;;;4993941;28;20046;-70
2023/12/17 08:12:58;;;;;;;5.60;3.60;;;;;;;;;;4993330;28;20046;-70
2023/12/17 08:15:24;;;;;;;7.65;3.97;;;;;;;;;;4992459;28;20023;-72
2023/12/17 08:17:49;;;;;;;6.32;3.50;;;;;;;;;;4992301;28;20050;-74
2023/12/17 08:20:15;;;;;;;6.10;3.40;;;;;;;;;;4991578;28;20023;-74
2023/12/17 08:22:41;;;;;;;5.35;3.78;;;;;;;;;;4991884;28;20046;-70
2023/12/17 08:25:07;;;;;;;4.95;3.47;;;;;;;;;;4976927;28;20027;-73
2023/12/17 08:27:32;;;;;;;5.55;3.28;;;;;;;;;;4992324;28;20054;-73
2023/12/17 08:29:58;;;;;;;4.95;3.70;;;;;;;;;;4990707;28;20387;-74
2023/12/17 08:32:31;;;;;;;5.35;4.22;;;;;;;;;;4992655;28;20034;-73
2023/12/17 08:34:57;;;;;;;4.72;3.83;;;;;;;;;;4992017;28;20033;-74
2023/12/17 08:37:24;;;;;;;5.07;3.58;;;;;;;;;;4979465;28;20030;-72
2023/12/17 08:39:50;;;;;;;6.25;4.07;;;;;;;;;;4990466;28;20034;-73
2023/12/17 08:42:15;;;;;;;5.88;3.63;;;;;;;;;;4990969;28;20026;-73
2023/12/17 08:44:41;;;;;;;5.60;3.60;;;;;;;;;;4991456;28;20116;-72
2023/12/17 08:47:06;;;;;;;5.28;3.58;;;;;;;;;;4992601;28;20066;-72
2023/12/17 08:49:32;;;;;;;7.50;4.10;;;;;;;;;;4992314;28;20402;-72
2023/12/17 08:51:57;;;;;;;6.47;4.78;;;;;;;;;;4992612;28;20038;-71
2023/12/17 08:54:23;;;;;;;6.88;5.00;;;;;;;;;;4991446;28;20030;-71
2023/12/17 08:56:49;;;;;;;7.40;4.82;;;;;;;;;;4993319;28;20113;-71
2023/12/17 08:59:14;;;;;;;9.63;4.75;;;;;;;;;;4990292;28;20490;-71
2023/12/17 09:01:40;;;;;;;6.43;4.80;;;;;;;;;;4992193;28;20088;-71
2023/12/17 09:04:06;;;;;;;6.32;4.85;;;;;;;;;;4991794;28;20053;-71
2023/12/17 09:06:44;;;;;;;9.40;4.18;;;;;;;;;;4994175;28;20073;-65
2023/12/17 09:09:10;;;;;;;7.55;4.72;;;;;;;;;;4994051;28;20035;-70
2023/12/17 09:11:35;;;;;;;8.90;4.85;;;;;;;;;;4993552;28;20089;-68
2023/12/17 09:14:01;;;;;;;5.93;4.38;;;;;;;;;;4989250;28;20037;-69
2023/12/17 09:16:26;;;;;;;7.25;5.18;;;;;;;;;;4993863;28;20018;-69
2023/12/17 09:18:52;;;;;;;10.93;4.80;;;;;;;;;;4993491;28;20026;-68
2023/12/17 09:21:17;;;;;;;9.25;4.80;;;;;;;;;;4993756;28;20051;-70
2023/12/17 09:23:44;;;;;;;16.08;5.53;;;;;;;;;;4993764;28;20069;-70
2023/12/17 09:26:10;;;;;;;6.97;4.85;;;;;;;;;;4989717;28;20493;-67
2023/12/17 09:28:36;;;;;;;9.95;4.93;;;;;;;;;;4993375;28;20506;-71
2023/12/17 09:31:01;;;;;;;10.15;5.18;;;;;;;;;;4993644;28;20032;-72
2023/12/17 09:33:27;;;;;;;9.20;4.82;;;;;;;;;;4993096;28;20105;-72
2023/12/17 09:35:53;;;;;;;9.18;5.30;;;;;;;;;;4993940;28;20065;-67
2023/12/17 09:38:19;;;;;;;6.03;4.15;;;;;;;;;;4993584;28;20470;-69
2023/12/17 09:40:48;;;;;;;8.85;4.28;;;;;;;;;;4993411;28;20026;-69
2023/12/17 09:43:14;;;;;;;9.23;4.63;;;;;;;;;;4991736;28;20032;-69
2023/12/17 09:45:41;;;;;;;7.22;4.78;;;;;;;;;;4974381;28;20105;-70
2023/12/17 09:48:07;;;;;;;8.18;4.68;;;;;;;;;;4991349;28;20030;-69
2023/12/17 09:50:32;;;;;;;7.60;4.60;;;;;;;;;;4992125;28;20040;-70
2023/12/17 09:52:58;;;;;;;7.32;4.20;;;;;;;;;;4991535;28;20105;-69
2023/12/17 09:55:24;;;;;;;6.60;4.53;;;;;;;;;;4992481;28;20208;-70
2023/12/17 09:57:50;;;;;;;5.78;4.32;;;;;;;;;;4992199;28;20026;-70
2023/12/17 10:00:16;;;;;;;6.18;4.60;;;;;;;;;;4993184;28;20039;-70
2023/12/17 10:02:42;;;;;;;6.78;4.32;;;;;;;;;;4975585;28;20026;-70
2023/12/17 10:05:08;;;;;;;5.65;4.25;;;;;;;;;;4993325;28;20097;-69
2023/12/17 10:07:38;;;;;;;6.45;4.10;;;;;;;;;;4993179;28;20041;-70
2023/12/17 10:10:04;;;;;;;6.60;4.45;;;;;;;;;;4993060;28;20526;-70
2023/12/17 10:12:29;;;;;;;6.60;4.25;;;;;;;;;;4993046;28;20100;-69
2023/12/17 10:14:55;;;;;;;8.77;4.32;;;;;;;;;;4992999;28;20054;-69
2023/12/17 10:17:21;;;;;;;8.82;4.40;;;;;;;;;;4992886;28;20026;-69
2023/12/17 10:19:53;;;;;;;5.63;4.28;;;;;;;;;;4992965;28;20026;-69
2023/12/17 10:22:22;;;;;;;9.05;4.78;;;;;;;;;;4992845;28;20072;-69
2023/12/17 10:24:48;;;;;;;12.90;4.32;;;;;;;;;;4992401;28;20045;-69
2023/12/17 10:27:21;;;;;;;5.45;4.10;;;;;;;;;;4992886;28;20088;-70
2023/12/17 10:29:52;;;;;;;7.00;4.55;;;;;;;;;;4993259;28;20054;-70
2023/12/17 10:32:22;;;;;;;6.13;4.22;;;;;;;;;;4975428;28;20435;-69
2023/12/17 10:34:49;;;;;;;;;;;;;;;;;;4993336;28;20375;-69
2023/12/17 10:37:18;;;;;;;6.25;3.90;;;;;;;;;;4992801;28;19990;-68
2023/12/17 10:39:45;;;;;;;8.85;4.65;;;;;;;;;;4992731;28;20105;-69
2023/12/17 10:42:11;;;;;;;5.43;4.20;;;;;;;;;;4992815;28;20033;-69
2023/12/17 10:44:38;;;;;;;5.13;4.30;;;;;;;;;;4992950;28;20026;-69
2023/12/17 10:47:05;;;;;;;5.55;4.20;;;;;;;;;;4996799;28;20077;-68
2023/12/17 10:49:31;;;;;;;5.82;4.38;;;;;;;;;;4996840;28;20036;-69
2023/12/17 10:51:59;;;;;;;6.28;4.15;;;;;;;;;;4996471;28;20507;-69
2023/12/17 10:54:25;;;;;;;4.97;4.22;;;;;;;;;;4996687;28;20048;-69
2023/12/17 10:56:54;;;;;;;5.18;3.65;;;;;;;;;;4996327;28;20085;-69
2023/12/17 10:59:24;;;;;;;5.55;4.18;;;;;;;;;;4996263;28;20031;-70
2023/12/17 11:01:52;;;;;;;5.10;4.28;;;;;;;;;;4996717;28;20026;-69
2023/12/17 11:04:18;;;;;;;6.60;4.00;;;;;;;;;;4996295;28;20046;-69
2023/12/17 11:06:44;;;;;;;6.13;4.05;;;;;;;;;;4996491;28;20022;-68
2023/12/17 11:09:10;;;;;;;5.70;3.78;;;;;;;;;;4996311;28;20026;-69
2023/12/17 11:11:36;;;;;;;5.82;4.30;;;;;;;;;;4996192;28;20037;-69
2023/12/17 11:14:02;;;;;;;4.75;3.72;;;;;;;;;;4996177;28;20023;-69
2023/12/17 11:16:29;;;;;;;6.15;3.90;;;;;;;;;;4978597;28;20030;-69
2023/12/17 11:18:58;;;;;;;6.55;4.32;;;;;;;;;;4996016;28;20026;-69
2023/12/17 11:21:26;;;;;;;6.40;4.05;;;;;;;;;;4995841;28;20045;-69
2023/12/17 11:23:51;;;;;;;9.45;4.32;;;;;;;;;;4978509;28;20045;-68
2023/12/17 11:26:18;;;;;;;5.68;4.10;;;;;;;;;;4995923;28;20437;-68
2023/12/17 11:28:48;;;;;;;6.72;4.07;;;;;;;;;;4995822;28;20034;-69
2023/12/17 11:31:14;;;;;;;6.82;4.45;;;;;;;;;;4996115;28;20426;-69
2023/12/17 11:33:40;;;;;;;6.45;4.00;;;;;;;;;;4995854;28;20498;-69
2023/12/17 11:36:07;;;;;;;6.18;4.25;;;;;;;;;;4978183;28;20042;-69
2023/12/17 11:38:35;;;;;;;6.40;3.92;;;;;;;;;;4995702;28;20026;-69
2023/12/17 11:41:00;;;;;;;5.85;4.05;;;;;;;;;;4978630;28;20487;-69
2023/12/17 11:43:25;;;;;;;5.85;3.97;;;;;;;;;;4995592;28;20061;-69
2023/12/17 11:45:51;;;;;;;5.75;4.10;;;;;;;;;;4995537;28;20034;-69
2023/12/17 11:48:19;;;;;;;7.13;4.18;;;;;;;;;;4995775;28;20475;-68
2023/12/17 11:50:54;;;;;;;5.80;4.25;;;;;;;;;;4995675;28;20105;-68
2023/12/17 11:53:20;;;;;;;5.85;4.55;;;;;;;;;;4995722;28;20030;-68
2023/12/17 11:55:56;;;;;;;5.90;3.72;;;;;;;;;;4995017;28;20066;-68
2023/12/17 11:58:23;;;;;;;4.75;3.80;;;;;;;;;;4995316;28;20113;-68
2023/12/17 12:01:08;;;;;;;5.18;3.95;;;;;;;;;;4995580;28;20057;-69
2023/12/17 12:03:34;;;;;;;5.93;4.18;;;;;;;;;;4995285;28;20553;-68
2023/12/17 12:06:10;;;;;;;5.20;3.67;;;;;;;;;;4995175;28;20027;-68
2023/12/17 12:08:41;;;;;;;4.70;3.65;;;;;;;;;;4995458;28;20027;-68
2023/12/17 12:11:07;;;;;;;6.15;4.10;;;;;;;;;;4994943;28;20537;-68
2023/12/17 12:13:38;;;;;;;5.57;4.22;;;;;;;;;;4995217;28;20273;-68
2023/12/17 12:16:04;;;;;;;4.80;3.80;;;;;;;;;;4995284;28;20034;-68
2023/12/17 12:18:30;;;;;;;5.47;3.78;;;;;;;;;;4994915;28;20424;-68
2023/12/17 12:20:55;;;;;;;5.13;4.20;;;;;;;;;;4994739;28;20113;-68
2023/12/17 12:23:21;;;;;;;7.13;4.20;;;;;;;;;;4994747;28;20034;-70
2023/12/17 12:25:47;;;;;;;5.85;4.03;;;;;;;;;;4993925;28;20391;-69
2023/12/17 12:28:20;;;;;;;5.78;3.55;;;;;;;;;;4994714;28;20037;-70
2023/12/17 12:30:47;;;;;;;7.35;3.88;;;;;;;;;;4994579;28;20030;-69
2023/12/17 12:33:17;;;;;;;4.38;3.65;;;;;;;;;;4994614;28;20030;-69
2023/12/17 12:35:45;;;;;;;7.38;4.28;;;;;;;;;;4994901;28;20031;-68
2023/12/17 12:38:24;;;;;;;6.15;4.13;;;;;;;;;;4994556;28;20026;-70
2023/12/17 12:40:52;;;;;;;8.93;4.47;;;;;;;;;;4994969;28;20057;-69
2023/12/17 12:43:21;;;;;;;14.35;4.25;;;;;;;;;;4994292;28;20022;-68
2023/12/17 12:45:49;;;;;;;9.50;4.20;;;;;;;;;;4994339;28;20026;-69
2023/12/17 12:48:25;;;;;;;6.65;4.47;;;;;;;;;;4994271;28;20080;-69
2023/12/17 12:50:51;;;;;;;8.60;3.90;;;;;;;;;;4994603;28;20430;-69
2023/12/17 12:53:18;;;;;;;7.75;4.28;;;;;;;;;;4994242;28;20062;-69
2023/12/17 12:55:45;;;;;;;5.63;4.30;;;;;;;;;;4994280;28;20029;-69
2023/12/17 12:58:12;;;;;;;7.07;3.90;;;;;;;;;;4994197;28;20105;-70
2023/12/17 13:00:40;;;;;;;8.75;3.90;;;;;;;;;;4993102;28;20028;-69
2023/12/17 13:03:05;;;;;;;5.53;3.90;;;;;;;;;;4993671;28;20038;-69
2023/12/17 13:05:31;;;;;;;10.07;4.22;;;;;;;;;;4993425;28;20034;-68
2023/12/17 13:07:56;;;;;;;11.63;4.20;;;;;;;;;;4993110;28;20030;-68
2023/12/17 13:10:22;;;;;;;5.78;4.05;;;;;;;;;;4994012;28;20029;-69
2023/12/17 13:12:47;;;;;;;4.68;3.88;;;;;;;;;;4993826;28;20062;-68
2023/12/17 13:15:13;;;;;;;7.75;3.80;;;;;;;;;;4993908;28;20045;-68
2023/12/17 13:17:40;;;;;;;7.68;3.72;;;;;;;;;;4993956;28;20026;-71
2023/12/17 13:20:08;;;;;;;7.45;4.07;;;;;;;;;;4993717;28;20057;-68
2023/12/17 13:22:34;;;;;;;7.20;3.78;;;;;;;;;;4993542;28;20049;-70
2023/12/17 13:24:59;;;;;;;10.02;5.00;;;;;;;;;;4993735;28;20026;-69
2023/12/17 13:27:26;;;;;;;5.05;3.70;;;;;;;;;;4993608;28;20061;-70
2023/12/17 13:29:51;;;;;;;5.13;3.75;;;;;;;;;;4993559;28;20033;-70
2023/12/17 13:32:17;;;;;;;8.40;4.13;;;;;;;;;;4993732;28;20030;-72
2023/12/17 13:34:42;;;;;;;7.78;3.95;;;;;;;;;;4993561;28;20383;-71
2023/12/17 13:37:09;;;;;;;7.07;3.90;;;;;;;;;;4993262;28;20113;-70
2023/12/17 13:39:37;;;;;;;8.85;4.38;;;;;;;;;;4993365;28;20022;-70
2023/12/17 13:42:04;;;;;;;11.30;3.90;;;;;;;;;;4993506;28;20142;-71
2023/12/17 13:44:30;;;;;;;5.00;3.88;;;;;;;;;;4993513;28;20029;-70
2023/12/17 13:46:56;;;;;;;8.20;3.90;;;;;;;;;;4993633;28;20026;-71
2023/12/17 13:49:21;;;;;;;8.07;3.85;;;;;;;;;;4975818;28;20030;-70
2023/12/17 13:51:47;;;;;;;14.18;4.28;;;;;;;;;;4993403;28;20030;-70
2023/12/17 13:54:13;;;;;;;7.65;3.88;;;;;;;;;;4993198;28;20054;-70
2023/12/17 13:56:39;;;;;;;6.85;3.80;;;;;;;;;;4993249;28;20519;-70
2023/12/17 13:59:05;;;;;;;7.47;4.32;;;;;;;;;;4993030;28;20030;-71
2023/12/17 14:01:30;;;;;;;5.32;3.72;;;;;;;;;;4993341;28;20022;-71
2023/12/17 14:03:59;;;;;;;6.63;3.92;;;;;;;;;;4993090;28;20431;-70
2023/12/17 14:06:26;;;;;;;4.63;4.00;;;;;;;;;;4993208;28;20475;-70
2023/12/17 14:08:52;;;;;;;4.82;3.92;;;;;;;;;;4992824;28;20069;-70
2023/12/17 14:11:19;;;;;;;9.30;4.40;;;;;;;;;;4992717;28;20063;-70
2023/12/17 14:13:45;;;;;;;6.93;3.58;;;;;;;;;;4956436;28;20534;-72
2023/12/17 14:16:14;;;;;;;6.57;3.83;;;;;;;;;;4992266;28;20109;-69
2023/12/17 14:18:40;;;;;;;4.25;3.55;;;;;;;;;;4993429;28;20027;-70
2023/12/17 14:21:07;;;;;;;5.82;4.10;;;;;;;;;;4998725;28;20026;-71
2023/12/17 14:23:33;;;;;;;6.22;4.45;;;;;;;;;;4999279;28;20023;-70
2023/12/17 14:25:59;;;;;;;7.10;4.10;;;;;;;;;;4999409;28;20072;-70
2023/12/17 14:28:24;;;;;;;7.30;3.83;;;;;;;;;;4999670;28;20026;-70
2023/12/17 14:30:51;;;;;;;7.00;3.70;;;;;;;;;;4999350;28;20026;-70
2023/12/17 14:33:16;;;;;;;8.10;4.18;;;;;;;;;;4999239;28;20033;-70
2023/12/17 14:35:42;;;;;;;8.05;4.07;;;;;;;;;;4999479;28;20101;-69
2023/12/17 14:38:08;;;;;;;8.70;4.63;;;;;;;;;;4999384;28;20034;-68
2023/12/17 14:40:34;;;;;;;9.00;4.07;;;;;;;;;;4999414;28;20034;-71
2023/12/17 14:43:01;;;;;;;5.57;4.18;;;;;;;;;;4999405;28;20022;-69
2023/12/17 14:45:26;;;;;;;6.97;4.45;;;;;;;;;;4998989;28;20363;-70
2023/12/17 14:47:52;;;;;;;5.85;3.92;;;;;;;;;;4981669;28;20030;-69
2023/12/17 14:50:18;;;;;;;5.15;4.00;;;;;;;;;;4999128;28;20028;-70
2023/12/17 14:52:44;;;;;;;7.85;4.15;;;;;;;;;;4999523;28;20034;-72
2023/12/17 14:55:09;;;;;;;6.00;4.45;;;;;;;;;;4999214;28;20422;-70
2023/12/17 14:57:35;;;;;;;6.68;3.45;;;;;;;;;;4999479;28;20062;-69
2023/12/17 15:00:00;;;;;;;4.70;3.85;;;;;;;;;;4999461;28;20026;-71
2023/12/17 15:02:27;;;;;;;5.40;3.80;;;;;;;;;;4999417;28;20053;-70
2023/12/17 15:04:54;;;;;;;4.45;3.50;;;;;;;;;;4999238;28;20402;-71
2023/12/17 15:07:20;;;;;;;6.03;3.90;;;;;;;;;;4999153;28;20076;-69
2023/12/17 15:09:46;;;;;;;7.80;4.25;;;;;;;;;;4998709;28;20033;-69
2023/12/17 15:12:12;;;;;;;5.88;3.92;;;;;;;;;;4998998;28;20521;-70
2023/12/17 15:14:40;;;;;;;5.32;3.65;;;;;;;;;;4999023;28;20034;-69
2023/12/17 15:17:06;;;;;;;4.97;3.92;;;;;;;;;;4998649;28;20034;-71
2023/12/17 15:19:32;;;;;;;5.75;3.92;;;;;;;;;;4999148;28;20022;-68
2023/12/17 15:21:58;;;;;;;6.45;4.00;;;;;;;;;;4998651;28;20050;-69
2023/12/17 15:24:23;;;;;;;6.25;3.90;;;;;;;;;;4998813;28;20117;-69
2023/12/17 15:26:49;;;;;;;5.25;4.13;;;;;;;;;;4998854;28;20063;-69
2023/12/17 15:29:14;;;;;;;5.10;4.13;;;;;;;;;;4998888;28;20027;-69
2023/12/17 15:31:41;;;;;;;5.63;4.00;;;;;;;;;;4995642;28;20071;-69
2023/12/17 15:34:06;;;;;;;5.10;3.67;;;;;;;;;;4996056;28;20026;-69
2023/12/17 15:36:39;;;;;;;5.53;3.80;;;;;;;;;;4995601;28;20369;-72
2023/12/17 15:39:04;;;;;;;4.78;3.88;;;;;;;;;;4995675;28;20105;-68
2023/12/17 15:41:30;;;;;;;4.75;3.45;;;;;;;;;;4978049;28;20109;-71
2023/12/17 15:43:55;;;;;;;6.22;3.70;;;;;;;;;;4993611;28;20033;-69
2023/12/17 15:46:22;;;;;;;6.45;3.70;;;;;;;;;;4995442;28;20033;-69
2023/12/17 15:48:49;;;;;;;5.65;3.58;;;;;;;;;;4995260;28;20057;-70
2023/12/17 15:51:21;;;;;;;5.28;3.92;;;;;;;;;;4995381;28;20030;-69
2023/12/17 15:53:53;;;;;;;6.65;4.00;;;;;;;;;;4993062;28;20479;-69
2023/12/17 15:56:20;;;;;;;5.90;3.67;;;;;;;;;;4974648;28;20034;-70
2023/12/17 15:58:48;;;;;;;6.18;3.55;;;;;;;;;;4995230;28;20030;-69
2023/12/17 16:01:13;;;;;;;6.63;4.22;;;;;;;;;;4995555;28;20026;-70
2023/12/17 16:03:39;;;;;;;6.32;4.05;;;;;;;;;;4995318;28;20030;-70
2023/12/17 16:06:08;;;;;;;7.00;3.85;;;;;;;;;;4994972;28;20037;-70
2023/12/17 16:08:34;;;;;;;5.13;3.60;;;;;;;;;;4995130;28;20042;-70
2023/12/17 16:10:59;;;;;;;7.78;4.28;;;;;;;;;;4995157;28;20039;-70
2023/12/17 16:13:25;;;;;;;7.20;4.05;;;;;;;;;;4994868;28;20037;-69
2023/12/17 16:15:50;;;;;;;5.25;3.40;;;;;;;;;;4995162;28;20101;-70
2023/12/17 16:18:16;;;;;;;6.68;4.03;;;;;;;;;;4995183;28;20113;-70
2023/12/17 16:20:44;;;;;;;8.20;3.78;;;;;;;;;;4994749;28;20038;-69
2023/12/17 16:23:10;;;;;;;14.43;4.18;;;;;;;;;;4994866;28;20042;-70
2023/12/17 16:25:36;;;;;;;6.43;4.10;;;;;;;;;;4994840;28;20503;-69
2023/12/17 16:28:02;;;;;;;8.05;4.13;;;;;;;;;;4994769;28;20033;-70
2023/12/17 16:30:27;;;;;;;6.90;4.00;;;;;;;;;;4995035;28;20022;-68
2023/12/17 16:32:53;;;;;;;4.53;3.75;;;;;;;;;;4994792;28;20027;-68
2023/12/17 16:35:18;;;;;;;8.52;3.88;;;;;;;;;;4994684;28;20023;-68
2023/12/17 16:37:44;;;;;;;7.88;4.35;;;;;;;;;;4994603;28;20040;-68
2023/12/17 16:40:09;;;;;;;8.98;4.45;;;;;;;;;;4994626;28;20034;-68
2023/12/17 16:42:35;;;;;;;5.95;4.15;;;;;;;;;;4993409;28;20034;-69
2023/12/17 16:45:02;;;;;;;5.43;3.72;;;;;;;;;;4994277;28;20034;-68
2023/12/17 16:47:27;;;;;;;9.50;4.20;;;;;;;;;;4994429;28;20505;-68
2023/12/17 16:49:53;;;;;;;5.68;3.90;;;;;;;;;;4994296;28;20030;-68
2023/12/17 16:52:18;;;;;;;6.90;4.07;;;;;;;;;;4994312;28;20023;-69
2023/12/17 16:54:47;;;;;;;9.40;4.07;;;;;;;;;;4994203;28;20018;-70
2023/12/17 16:57:13;;;;;;;5.95;3.85;;;;;;;;;;4994142;28;20125;-68
2023/12/17 16:59:42;;;;;;;5.57;3.88;;;;;;;;;;4994140;28;20109;-68
2023/12/17 17:02:08;;;;;;;7.40;4.07;;;;;;;;;;4994129;28;20113;-69
2023/12/17 17:04:38;;;;;;;8.18;3.92;;;;;;;;;;4994059;28;20068;-68
2023/12/17 17:07:04;;;;;;;7.72;4.05;;;;;;;;;;4994047;28;20497;-69
2023/12/17 17:09:30;;;;;;;3.83;3.45;;;;;;;;;;4993948;28;20038;-68
2023/12/17 17:11:55;;;;;;;5.65;3.70;;;;;;;;;;4994016;28;20113;-68
2023/12/17 17:14:22;;;;;;;9.15;4.28;;;;;;;;;;4994155;28;20030;-69
2023/12/17 17:16:47;;;;;;;8.77;4.22;;;;;;;;;;4992736;28;20459;-69
2023/12/17 17:19:13;;;;;;;5.47;3.63;;;;;;;;;;4992635;28;20034;-68
2023/12/17 17:21:39;;;;;;;5.20;3.63;;;;;;;;;;4990105;28;20038;-69
2023/12/17 17:24:05;;;;;;;10.85;3.88;;;;;;;;;;4991380;28;20038;-68
2023/12/17 17:26:31;;;;;;;4.93;3.55;;;;;;;;;;4993311;28;20027;-68
2023/12/17 17:28:57;;;;;;;8.75;4.28;;;;;;;;;;4993614;28;20109;-69
2023/12/17 17:31:23;;;;;;;7.68;3.70;;;;;;;;;;4991864;28;20114;-68
2023/12/17 17:33:48;;;;;;;7.45;3.97;;;;;;;;;;4993479;28;20105;-69
2023/12/17 17:36:14;;;;;;;7.63;3.95;;;;;;;;;;4992458;28;20034;-69
2023/12/17 17:38:40;;;;;;;7.65;3.70;;;;;;;;;;4992308;28;20070;-68
2023/12/17 17:41:06;;;;;;;7.97;4.00;;;;;;;;;;4992829;28;20038;-69
2023/12/17 17:43:32;;;;;;;7.07;4.00;;;;;;;;;;4992445;28;20388;-69
2023/12/17 17:45:58;;;;;;;5.70;3.88;;;;;;;;;;4993194;28;20037;-69
2023/12/17 17:48:25;;;;;;;5.15;3.80;;;;;;;;;;4991983;28;20152;-69
2023/12/17 17:50:51;;;;;;;8.65;3.97;;;;;;;;;;4993544;28;20034;-69
2023/12/17 17:53:16;;;;;;;10.77;4.55;;;;;;;;;;4990732;28;20029;-69
2023/12/17 17:55:42;;;;;;;6.35;3.72;;;;;;;;;;4992558;28;20034;-69
2023/12/17 17:58:08;;;;;;;5.50;3.40;;;;;;;;;;4993380;28;20034;-69
2023/12/17 18:00:34;;;;;;;12.88;3.83;;;;;;;;;;4993432;28;20426;-69
2023/12/17 18:03:00;;;;;;;7.38;3.60;;;;;;;;;;4993253;28;20137;-69
2023/12/17 18:05:26;;;;;;;9.27;3.85;;;;;;;;;;4993270;28;20483;-68
2023/12/17 18:07:51;;;;;;;5.90;3.60;;;;;;;;;;4993259;28;20030;-69
2023/12/17 18:10:17;;;;;;;6.53;4.30;;;;;;;;;;4993306;28;20027;-68
2023/12/17 18:12:42;;;;;;;5.78;3.63;;;;;;;;;;4993393;28;20383;-68
2023/12/17 18:15:08;;;;;;;8.32;3.80;;;;;;;;;;4992636;28;20481;-68
2023/12/17 18:17:34;;;;;;;5.28;3.72;;;;;;;;;;4992783;28;20030;-69
2023/12/17 18:20:00;;;;;;;8.88;3.92;;;;;;;;;;4993016;28;20026;-69
2023/12/17 18:22:26;;;;;;;8.93;4.00;;;;;;;;;;4992582;28;20511;-69
2023/12/17 18:24:52;;;;;;;5.28;3.90;;;;;;;;;;4993202;28;20042;-69
2023/12/17 18:27:17;;;;;;;6.03;3.70;;;;;;;;;;4992898;28;20045;-69
2023/12/17 18:29:43;;;;;;;5.63;3.78;;;;;;;;;;4992903;28;20038;-69
2023/12/17 18:32:09;;;;;;;5.65;4.13;;;;;;;;;;4992445;28;20031;-70
2023/12/17 18:34:35;;;;;;;5.13;4.35;;;;;;;;;;4992838;28;20030;-69
2023/12/17 18:37:02;;;;;;;5.60;4.07;;;;;;;;;;4992964;28;20030;-69
2023/12/17 18:39:27;;;;;;;10.68;4.93;;;;;;;;;;4992402;28;20113;-70
2023/12/17 18:41:53;;;;;;;12.60;4.90;;;;;;;;;;4992976;28;20110;-69
2023/12/17 18:44:19;;;;;;;7.97;4.70;;;;;;;;;;4992678;28;20035;-70
2023/12/17 18:46:44;;;;;;;8.63;5.10;;;;;;;;;;4993015;28;20033;-70